sensor_id;sensor_type;location;lat;lon;timestamp;P1;durP1;ratioP1;P2;durP2;ratioP2
68214;SDS011;55036;52.138;5.236;2024-01-16T00:00:39;5.82;;;1.10;;
68214;SDS011;55036;52.138;5.236;2024-01-16T00:03:06;4.50;;;1.05;;
68214;SDS011;55036;52.138;5.236;2024-01-16T00:05:32;5.63;;;0.90;;
68214;SDS011;55036;52.138;5.236;2024-01-16T00:07:59;4.97;;;1.25;;
68214;SDS011;55036;52.138;5.236;2024-01-16T00:10:26;4.13;;;0.95;;
68214;SDS011;55036;52.138;5.236;2024-01-16T00:12:53;4.32;;;1.17;;
68214;SDS011;55036;52.138;5.236;2024-01-16T00:15:20;7.13;;;1.25;;
68214;SDS011;55036;52.138;5.236;2024-01-16T00:17:47;5.07;;;1.05;;
68214;SDS011;55036;52.138;5.236;2024-01-16T00:20:14;8.43;;;1.58;;
68214;SDS011;55036;52.138;5.236;2024-01-16T00:22:41;2.35;;;1.02;;
68214;SDS011;55036;52.138;5.236;2024-01-16T00:25:08;3.83;;;1.50;;
68214;SDS011;55036;52.138;5.236;2024-01-16T00:27:35;9.13;;;1.67;;
68214;SDS011;55036;52.138;5.236;2024-01-16T00:30:02;10.18;;;1.63;;
68214;SDS011;55036;52.138;5.236;2024-01-16T00:32:29;5.22;;;1.27;;
68214;SDS011;55036;52.138;5.236;2024-01-16T00:34:56;9.85;;;1.52;;
68214;SDS011;55036;52.138;5.236;2024-01-16T00:37:23;4.43;;;1.27;;
68214;SDS011;55036;52.138;5.236;2024-01-16T00:39:49;9.32;;;1.48;;
68214;SDS011;55036;52.138;5.236;2024-01-16T00:42:16;5.90;;;1.42;;
68214;SDS011;55036;52.138;5.236;2024-01-16T00:44:43;9.90;;;2.95;;
68214;SDS011;55036;52.138;5.236;2024-01-16T00:47:10;10.63;;;1.98;;
68214;SDS011;55036;52.138;5.236;2024-01-16T00:49:36;7.28;;;1.20;;
68214;SDS011;55036;52.138;5.236;2024-01-16T00:52:03;5.97;;;1.27;;
68214;SDS011;55036;52.138;5.236;2024-01-16T00:54:30;6.80;;;1.25;;
68214;SDS011;55036;52.138;5.236;2024-01-16T00:56:57;10.55;;;1.77;;
68214;SDS011;55036;52.138;5.236;2024-01-16T00:59:26;6.72;;;2.03;;
68214;SDS011;55036;52.138;5.236;2024-01-16T01:01:53;3.90;;;1.15;;
68214;SDS011;55036;52.138;5.236;2024-01-16T01:04:19;4.28;;;1.30;;
68214;SDS011;55036;52.138;5.236;2024-01-16T01:06:46;7.60;;;1.33;;
68214;SDS011;55036;52.138;5.236;2024-01-16T01:09:13;18.73;;;1.55;;
68214;SDS011;55036;52.138;5.236;2024-01-16T01:11:39;6.60;;;1.50;;
68214;SDS011;55036;52.138;5.236;2024-01-16T01:14:06;6.90;;;1.73;;
68214;SDS011;55036;52.138;5.236;2024-01-16T01:16:33;4.03;;;1.75;;
68214;SDS011;55036;52.138;5.236;2024-01-16T01:19:00;4.32;;;1.20;;
68214;SDS011;55036;52.138;5.236;2024-01-16T01:21:27;9.65;;;1.75;;
68214;SDS011;55036;52.138;5.236;2024-01-16T01:23:54;6.75;;;1.38;;
68214;SDS011;55036;52.138;5.236;2024-01-16T01:26:21;4.95;;;0.93;;
68214;SDS011;55036;52.138;5.236;2024-01-16T01:28:47;4.25;;;1.55;;
68214;SDS011;55036;52.138;5.236;2024-01-16T01:31:14;7.38;;;1.25;;
68214;SDS011;55036;52.138;5.236;2024-01-16T01:33:41;5.38;;;1.30;;
68214;SDS011;55036;52.138;5.236;2024-01-16T01:36:08;5.05;;;1.42;;
68214;SDS011;55036;52.138;5.236;2024-01-16T01:38:36;5.60;;;1.05;;
68214;SDS011;55036;52.138;5.236;2024-01-16T01:41:03;6.40;;;1.27;;
68214;SDS011;55036;52.138;5.236;2024-01-16T01:43:33;8.70;;;1.48;;
68214;SDS011;55036;52.138;5.236;2024-01-16T01:46:06;5.10;;;1.02;;
68214;SDS011;55036;52.138;5.236;2024-01-16T01:48:45;4.45;;;1.17;;
68214;SDS011;55036;52.138;5.236;2024-01-16T01:51:14;11.80;;;1.60;;
68214;SDS011;55036;52.138;5.236;2024-01-16T01:53:44;4.82;;;1.02;;
68214;SDS011;55036;52.138;5.236;2024-01-16T01:56:13;7.30;;;1.20;;
68214;SDS011;55036;52.138;5.236;2024-01-16T01:58:43;6.15;;;0.88;;
68214;SDS011;55036;52.138;5.236;2024-01-16T02:01:11;6.20;;;0.93;;
68214;SDS011;55036;52.138;5.236;2024-01-16T02:03:44;2.95;;;0.40;;
68214;SDS011;55036;52.138;5.236;2024-01-16T02:06:12;3.85;;;0.65;;
68214;SDS011;55036;52.138;5.236;2024-01-16T02:08:42;4.38;;;0.77;;
68214;SDS011;55036;52.138;5.236;2024-01-16T02:11:09;2.55;;;0.60;;
68214;SDS011;55036;52.138;5.236;2024-01-16T02:13:36;7.75;;;0.73;;
68214;SDS011;55036;52.138;5.236;2024-01-16T02:16:03;3.95;;;0.47;;
68214;SDS011;55036;52.138;5.236;2024-01-16T02:18:31;5.40;;;0.43;;
68214;SDS011;55036;52.138;5.236;2024-01-16T02:21:02;1.42;;;0.50;;
68214;SDS011;55036;52.138;5.236;2024-01-16T02:23:32;3.08;;;0.40;;
68214;SDS011;55036;52.138;5.236;2024-01-16T02:25:59;2.95;;;0.55;;
68214;SDS011;55036;52.138;5.236;2024-01-16T02:28:28;5.03;;;0.60;;
68214;SDS011;55036;52.138;5.236;2024-01-16T02:30:55;0.95;;;0.20;;
68214;SDS011;55036;52.138;5.236;2024-01-16T02:33:22;1.85;;;0.35;;
68214;SDS011;55036;52.138;5.236;2024-01-16T02:35:49;7.32;;;0.50;;
68214;SDS011;55036;52.138;5.236;2024-01-16T02:38:16;3.85;;;0.70;;
68214;SDS011;55036;52.138;5.236;2024-01-16T02:40:43;3.15;;;0.38;;
68214;SDS011;55036;52.138;5.236;2024-01-16T02:43:10;3.83;;;0.50;;
68214;SDS011;55036;52.138;5.236;2024-01-16T02:45:37;3.53;;;0.40;;
68214;SDS011;55036;52.138;5.236;2024-01-16T02:48:04;4.00;;;0.85;;
68214;SDS011;55036;52.138;5.236;2024-01-16T02:50:31;3.88;;;0.65;;
68214;SDS011;55036;52.138;5.236;2024-01-16T02:52:58;4.13;;;0.73;;
68214;SDS011;55036;52.138;5.236;2024-01-16T02:55:25;2.15;;;0.30;;
68214;SDS011;55036;52.138;5.236;2024-01-16T02:57:52;3.28;;;0.52;;
68214;SDS011;55036;52.138;5.236;2024-01-16T03:00:19;1.63;;;0.40;;
68214;SDS011;55036;52.138;5.236;2024-01-16T03:02:45;3.22;;;0.55;;
68214;SDS011;55036;52.138;5.236;2024-01-16T03:05:12;1.27;;;0.40;;
68214;SDS011;55036;52.138;5.236;2024-01-16T03:07:39;1.13;;;0.30;;
68214;SDS011;55036;52.138;5.236;2024-01-16T03:10:07;2.33;;;0.30;;
68214;SDS011;55036;52.138;5.236;2024-01-16T03:12:34;2.67;;;0.25;;
68214;SDS011;55036;52.138;5.236;2024-01-16T03:15:01;3.47;;;0.40;;
68214;SDS011;55036;52.138;5.236;2024-01-16T03:17:28;2.78;;;0.30;;
68214;SDS011;55036;52.138;5.236;2024-01-16T03:19:54;4.57;;;0.50;;
68214;SDS011;55036;52.138;5.236;2024-01-16T03:22:21;1.40;;;0.40;;
68214;SDS011;55036;52.138;5.236;2024-01-16T03:24:49;2.63;;;0.28;;
68214;SDS011;55036;52.138;5.236;2024-01-16T03:27:16;1.25;;;0.32;;
68214;SDS011;55036;52.138;5.236;2024-01-16T03:29:43;3.13;;;0.43;;
68214;SDS011;55036;52.138;5.236;2024-01-16T03:32:09;2.65;;;0.47;;
68214;SDS011;55036;52.138;5.236;2024-01-16T03:34:36;1.63;;;0.30;;
68214;SDS011;55036;52.138;5.236;2024-01-16T03:37:03;0.40;;;0.22;;
68214;SDS011;55036;52.138;5.236;2024-01-16T03:39:30;0.57;;;0.30;;
68214;SDS011;55036;52.138;5.236;2024-01-16T03:41:57;2.10;;;0.55;;
68214;SDS011;55036;52.138;5.236;2024-01-16T03:44:23;3.78;;;0.32;;
68214;SDS011;55036;52.138;5.236;2024-01-16T03:46:50;2.28;;;0.20;;
68214;SDS011;55036;52.138;5.236;2024-01-16T03:49:17;2.75;;;0.50;;
68214;SDS011;55036;52.138;5.236;2024-01-16T03:51:43;4.00;;;0.30;;
68214;SDS011;55036;52.138;5.236;2024-01-16T03:54:12;2.70;;;0.40;;
68214;SDS011;55036;52.138;5.236;2024-01-16T03:56:39;2.67;;;0.30;;
68214;SDS011;55036;52.138;5.236;2024-01-16T03:59:06;2.25;;;0.55;;
68214;SDS011;55036;52.138;5.236;2024-01-16T04:01:33;1.50;;;0.47;;
68214;SDS011;55036;52.138;5.236;2024-01-16T04:04:02;5.32;;;0.32;;
68214;SDS011;55036;52.138;5.236;2024-01-16T04:06:32;3.95;;;0.63;;
68214;SDS011;55036;52.138;5.236;2024-01-16T04:08:59;2.78;;;0.45;;
68214;SDS011;55036;52.138;5.236;2024-01-16T04:11:27;2.33;;;0.68;;
68214;SDS011;55036;52.138;5.236;2024-01-16T04:13:53;2.08;;;0.50;;
68214;SDS011;55036;52.138;5.236;2024-01-16T04:16:20;3.88;;;0.30;;
68214;SDS011;55036;52.138;5.236;2024-01-16T04:18:47;2.28;;;0.85;;
68214;SDS011;55036;52.138;5.236;2024-01-16T04:21:15;5.55;;;1.00;;
68214;SDS011;55036;52.138;5.236;2024-01-16T04:23:45;1.42;;;0.80;;
68214;SDS011;55036;52.138;5.236;2024-01-16T04:26:12;3.15;;;0.50;;
68214;SDS011;55036;52.138;5.236;2024-01-16T04:28:39;2.42;;;0.65;;
68214;SDS011;55036;52.138;5.236;2024-01-16T04:31:06;4.25;;;0.65;;
68214;SDS011;55036;52.138;5.236;2024-01-16T04:33:33;4.13;;;0.70;;
68214;SDS011;55036;52.138;5.236;2024-01-16T04:36:00;8.50;;;0.73;;
68214;SDS011;55036;52.138;5.236;2024-01-16T04:38:27;2.65;;;0.40;;
68214;SDS011;55036;52.138;5.236;2024-01-16T04:40:54;2.60;;;0.80;;
68214;SDS011;55036;52.138;5.236;2024-01-16T04:43:21;2.65;;;0.68;;
68214;SDS011;55036;52.138;5.236;2024-01-16T04:45:48;3.70;;;0.90;;
68214;SDS011;55036;52.138;5.236;2024-01-16T04:48:15;3.78;;;0.70;;
68214;SDS011;55036;52.138;5.236;2024-01-16T04:50:42;3.22;;;0.70;;
68214;SDS011;55036;52.138;5.236;2024-01-16T04:53:09;2.55;;;0.80;;
68214;SDS011;55036;52.138;5.236;2024-01-16T04:55:36;3.90;;;0.63;;
68214;SDS011;55036;52.138;5.236;2024-01-16T04:58:03;3.38;;;0.80;;
68214;SDS011;55036;52.138;5.236;2024-01-16T05:00:31;5.90;;;0.70;;
68214;SDS011;55036;52.138;5.236;2024-01-16T05:02:58;4.43;;;0.80;;
68214;SDS011;55036;52.138;5.236;2024-01-16T05:05:25;2.67;;;0.68;;
68214;SDS011;55036;52.138;5.236;2024-01-16T05:07:55;5.30;;;1.05;;
68214;SDS011;55036;52.138;5.236;2024-01-16T05:10:22;3.17;;;0.68;;
68214;SDS011;55036;52.138;5.236;2024-01-16T05:12:49;5.32;;;0.85;;
68214;SDS011;55036;52.138;5.236;2024-01-16T05:15:15;3.55;;;0.77;;
68214;SDS011;55036;52.138;5.236;2024-01-16T05:17:42;3.13;;;1.10;;
68214;SDS011;55036;52.138;5.236;2024-01-16T05:20:09;4.65;;;0.88;;
68214;SDS011;55036;52.138;5.236;2024-01-16T05:22:37;2.08;;;0.80;;
68214;SDS011;55036;52.138;5.236;2024-01-16T05:25:05;5.13;;;1.00;;
68214;SDS011;55036;52.138;5.236;2024-01-16T05:27:35;2.45;;;0.88;;
68214;SDS011;55036;52.138;5.236;2024-01-16T05:30:02;1.75;;;0.85;;
68214;SDS011;55036;52.138;5.236;2024-01-16T05:32:29;5.68;;;0.93;;
68214;SDS011;55036;52.138;5.236;2024-01-16T05:34:56;5.32;;;1.27;;
68214;SDS011;55036;52.138;5.236;2024-01-16T05:37:23;3.88;;;1.00;;
68214;SDS011;55036;52.138;5.236;2024-01-16T05:39:50;5.72;;;1.20;;
68214;SDS011;55036;52.138;5.236;2024-01-16T05:42:17;2.00;;;0.88;;
68214;SDS011;55036;52.138;5.236;2024-01-16T05:44:43;7.43;;;1.13;;
68214;SDS011;55036;52.138;5.236;2024-01-16T05:47:10;3.50;;;0.95;;
68214;SDS011;55036;52.138;5.236;2024-01-16T05:49:37;2.97;;;0.85;;
68214;SDS011;55036;52.138;5.236;2024-01-16T05:52:04;2.50;;;1.05;;
68214;SDS011;55036;52.138;5.236;2024-01-16T05:54:31;9.18;;;1.35;;
68214;SDS011;55036;52.138;5.236;2024-01-16T05:56:58;4.85;;;1.10;;
68214;SDS011;55036;52.138;5.236;2024-01-16T05:59:25;5.15;;;1.52;;
68214;SDS011;55036;52.138;5.236;2024-01-16T06:01:52;13.65;;;4.60;;
68214;SDS011;55036;52.138;5.236;2024-01-16T06:04:18;3.83;;;1.45;;
68214;SDS011;55036;52.138;5.236;2024-01-16T06:06:45;5.95;;;1.60;;
68214;SDS011;55036;52.138;5.236;2024-01-16T06:09:14;5.13;;;1.60;;
68214;SDS011;55036;52.138;5.236;2024-01-16T06:11:40;5.03;;;2.17;;
68214;SDS011;55036;52.138;5.236;2024-01-16T06:14:08;4.38;;;1.20;;
68214;SDS011;55036;52.138;5.236;2024-01-16T06:16:35;5.65;;;1.42;;
68214;SDS011;55036;52.138;5.236;2024-01-16T06:19:02;12.48;;;3.35;;
68214;SDS011;55036;52.138;5.236;2024-01-16T06:21:29;14.27;;;4.95;;
68214;SDS011;55036;52.138;5.236;2024-01-16T06:23:56;17.25;;;8.43;;
68214;SDS011;55036;52.138;5.236;2024-01-16T06:26:23;9.30;;;4.00;;
68214;SDS011;55036;52.138;5.236;2024-01-16T06:28:50;9.63;;;4.18;;
68214;SDS011;55036;52.138;5.236;2024-01-16T06:31:16;12.02;;;4.15;;
68214;SDS011;55036;52.138;5.236;2024-01-16T06:33:44;4.75;;;1.45;;
68214;SDS011;55036;52.138;5.236;2024-01-16T06:36:11;6.55;;;2.08;;
68214;SDS011;55036;52.138;5.236;2024-01-16T06:38:39;19.65;;;7.75;;
68214;SDS011;55036;52.138;5.236;2024-01-16T06:41:06;18.17;;;6.35;;
68214;SDS011;55036;52.138;5.236;2024-01-16T06:43:33;4.10;;;1.92;;
68214;SDS011;55036;52.138;5.236;2024-01-16T06:46:00;4.60;;;1.58;;
68214;SDS011;55036;52.138;5.236;2024-01-16T06:48:27;9.15;;;2.40;;
68214;SDS011;55036;52.138;5.236;2024-01-16T06:50:54;5.15;;;1.90;;
68214;SDS011;55036;52.138;5.236;2024-01-16T06:53:20;3.90;;;1.85;;
68214;SDS011;55036;52.138;5.236;2024-01-16T06:55:48;6.70;;;2.03;;
68214;SDS011;55036;52.138;5.236;2024-01-16T06:58:15;4.65;;;2.25;;
68214;SDS011;55036;52.138;5.236;2024-01-16T07:00:41;6.65;;;2.35;;
68214;SDS011;55036;52.138;5.236;2024-01-16T07:03:09;7.95;;;2.17;;
68214;SDS011;55036;52.138;5.236;2024-01-16T07:05:36;9.43;;;2.95;;
68214;SDS011;55036;52.138;5.236;2024-01-16T07:08:03;4.63;;;2.22;;
68214;SDS011;55036;52.138;5.236;2024-01-16T07:10:29;6.45;;;2.33;;
68214;SDS011;55036;52.138;5.236;2024-01-16T07:12:57;6.75;;;2.40;;
68214;SDS011;55036;52.138;5.236;2024-01-16T07:15:24;5.88;;;2.28;;
68214;SDS011;55036;52.138;5.236;2024-01-16T07:17:51;3.42;;;2.20;;
68214;SDS011;55036;52.138;5.236;2024-01-16T07:20:18;8.35;;;2.90;;
68214;SDS011;55036;52.138;5.236;2024-01-16T07:22:45;5.78;;;2.92;;
68214;SDS011;55036;52.138;5.236;2024-01-16T07:25:12;8.18;;;3.05;;
68214;SDS011;55036;52.138;5.236;2024-01-16T07:27:39;7.60;;;2.78;;
68214;SDS011;55036;52.138;5.236;2024-01-16T07:30:06;6.07;;;3.50;;
68214;SDS011;55036;52.138;5.236;2024-01-16T07:32:33;7.75;;;3.70;;
68214;SDS011;55036;52.138;5.236;2024-01-16T07:35:02;7.93;;;3.58;;
68214;SDS011;55036;52.138;5.236;2024-01-16T07:37:29;8.15;;;3.85;;
68214;SDS011;55036;52.138;5.236;2024-01-16T07:39:56;5.25;;;3.50;;
68214;SDS011;55036;52.138;5.236;2024-01-16T07:42:23;5.30;;;3.88;;
68214;SDS011;55036;52.138;5.236;2024-01-16T07:44:50;8.02;;;3.80;;
68214;SDS011;55036;52.138;5.236;2024-01-16T07:47:17;10.68;;;3.95;;
68214;SDS011;55036;52.138;5.236;2024-01-16T07:49:45;8.10;;;3.88;;
68214;SDS011;55036;52.138;5.236;2024-01-16T07:52:12;8.52;;;3.97;;
68214;SDS011;55036;52.138;5.236;2024-01-16T07:54:38;12.15;;;4.13;;
68214;SDS011;55036;52.138;5.236;2024-01-16T07:57:05;8.07;;;4.28;;
68214;SDS011;55036;52.138;5.236;2024-01-16T07:59:32;9.10;;;4.93;;
68214;SDS011;55036;52.138;5.236;2024-01-16T08:01:59;10.35;;;3.92;;
68214;SDS011;55036;52.138;5.236;2024-01-16T08:04:26;9.65;;;4.43;;
68214;SDS011;55036;52.138;5.236;2024-01-16T08:06:53;8.30;;;4.22;;
68214;SDS011;55036;52.138;5.236;2024-01-16T08:09:20;11.65;;;4.30;;
68214;SDS011;55036;52.138;5.236;2024-01-16T08:11:47;7.30;;;4.10;;
68214;SDS011;55036;52.138;5.236;2024-01-16T08:14:14;7.88;;;4.65;;
68214;SDS011;55036;52.138;5.236;2024-01-16T08:16:41;8.07;;;4.40;;
68214;SDS011;55036;52.138;5.236;2024-01-16T08:19:07;9.32;;;4.07;;
68214;SDS011;55036;52.138;5.236;2024-01-16T08:21:34;9.15;;;4.07;;
68214;SDS011;55036;52.138;5.236;2024-01-16T08:24:01;10.80;;;3.67;;
68214;SDS011;55036;52.138;5.236;2024-01-16T08:26:28;8.73;;;3.70;;
68214;SDS011;55036;52.138;5.236;2024-01-16T08:28:55;10.70;;;3.88;;
68214;SDS011;55036;52.138;5.236;2024-01-16T08:31:22;9.18;;;3.58;;
68214;SDS011;55036;52.138;5.236;2024-01-16T08:33:48;11.60;;;4.10;;
68214;SDS011;55036;52.138;5.236;2024-01-16T08:36:19;8.30;;;3.40;;
68214;SDS011;55036;52.138;5.236;2024-01-16T08:38:46;10.48;;;4.30;;
68214;SDS011;55036;52.138;5.236;2024-01-16T08:41:13;9.68;;;3.40;;
68214;SDS011;55036;52.138;5.236;2024-01-16T08:43:40;7.18;;;3.83;;
68214;SDS011;55036;52.138;5.236;2024-01-16T08:46:06;9.88;;;3.70;;
68214;SDS011;55036;52.138;5.236;2024-01-16T08:48:33;10.05;;;3.22;;
68214;SDS011;55036;52.138;5.236;2024-01-16T08:51:00;9.27;;;2.88;;
68214;SDS011;55036;52.138;5.236;2024-01-16T08:53:29;7.03;;;3.00;;
68214;SDS011;55036;52.138;5.236;2024-01-16T08:55:57;8.38;;;3.05;;
68214;SDS011;55036;52.138;5.236;2024-01-16T08:58:24;6.60;;;3.38;;
68214;SDS011;55036;52.138;5.236;2024-01-16T09:00:51;9.38;;;2.75;;
68214;SDS011;55036;52.138;5.236;2024-01-16T09:03:17;7.38;;;2.70;;
68214;SDS011;55036;52.138;5.236;2024-01-16T09:05:44;12.35;;;3.22;;
68214;SDS011;55036;52.138;5.236;2024-01-16T09:08:11;9.95;;;2.88;;
68214;SDS011;55036;52.138;5.236;2024-01-16T09:10:39;10.75;;;3.10;;
68214;SDS011;55036;52.138;5.236;2024-01-16T09:13:06;8.52;;;3.05;;
68214;SDS011;55036;52.138;5.236;2024-01-16T09:15:33;7.30;;;2.50;;
68214;SDS011;55036;52.138;5.236;2024-01-16T09:18:00;9.75;;;3.10;;
68214;SDS011;55036;52.138;5.236;2024-01-16T09:20:28;10.80;;;2.60;;
68214;SDS011;55036;52.138;5.236;2024-01-16T09:22:55;8.13;;;2.70;;
68214;SDS011;55036;52.138;5.236;2024-01-16T09:25:21;7.85;;;2.38;;
68214;SDS011;55036;52.138;5.236;2024-01-16T09:27:50;3.88;;;2.08;;
68214;SDS011;55036;52.138;5.236;2024-01-16T09:30:17;9.95;;;2.90;;
68214;SDS011;55036;52.138;5.236;2024-01-16T09:32:45;7.80;;;2.17;;
68214;SDS011;55036;52.138;5.236;2024-01-16T09:35:12;5.55;;;2.40;;
68214;SDS011;55036;52.138;5.236;2024-01-16T09:37:39;4.32;;;2.20;;
68214;SDS011;55036;52.138;5.236;2024-01-16T09:40:06;8.73;;;2.63;;
68214;SDS011;55036;52.138;5.236;2024-01-16T09:42:33;5.70;;;1.88;;
68214;SDS011;55036;52.138;5.236;2024-01-16T09:45:00;6.47;;;2.00;;
68214;SDS011;55036;52.138;5.236;2024-01-16T09:47:30;6.00;;;1.77;;
68214;SDS011;55036;52.138;5.236;2024-01-16T09:50:02;9.93;;;2.22;;
68214;SDS011;55036;52.138;5.236;2024-01-16T09:52:29;5.70;;;1.73;;
68214;SDS011;55036;52.138;5.236;2024-01-16T09:54:56;9.32;;;2.25;;
68214;SDS011;55036;52.138;5.236;2024-01-16T09:57:24;6.80;;;2.25;;
68214;SDS011;55036;52.138;5.236;2024-01-16T09:59:52;10.45;;;2.08;;
68214;SDS011;55036;52.138;5.236;2024-01-16T10:02:19;6.28;;;1.85;;
68214;SDS011;55036;52.138;5.236;2024-01-16T10:04:49;7.50;;;2.78;;
68214;SDS011;55036;52.138;5.236;2024-01-16T10:07:16;6.85;;;2.60;;
68214;SDS011;55036;52.138;5.236;2024-01-16T10:09:44;4.13;;;1.70;;
68214;SDS011;55036;52.138;5.236;2024-01-16T10:12:11;4.65;;;1.48;;
68214;SDS011;55036;52.138;5.236;2024-01-16T10:14:38;7.75;;;1.50;;
68214;SDS011;55036;52.138;5.236;2024-01-16T10:17:06;6.57;;;1.85;;
68214;SDS011;55036;52.138;5.236;2024-01-16T10:19:47;4.13;;;1.63;;
68214;SDS011;55036;52.138;5.236;2024-01-16T10:22:19;6.15;;;1.80;;
68214;SDS011;55036;52.138;5.236;2024-01-16T10:25:13;6.57;;;1.92;;
68214;SDS011;55036;52.138;5.236;2024-01-16T10:27:43;5.55;;;1.55;;
68214;SDS011;55036;52.138;5.236;2024-01-16T10:30:10;7.05;;;1.67;;
68214;SDS011;55036;52.138;5.236;2024-01-16T10:32:38;3.95;;;1.88;;
68214;SDS011;55036;52.138;5.236;2024-01-16T10:37:40;7.65;;;1.80;;
68214;SDS011;55036;52.138;5.236;2024-01-16T10:40:08;5.82;;;1.58;;
68214;SDS011;55036;52.138;5.236;2024-01-16T10:42:36;4.53;;;1.38;;
68214;SDS011;55036;52.138;5.236;2024-01-16T10:45:04;2.75;;;1.42;;
68214;SDS011;55036;52.138;5.236;2024-01-16T10:47:32;7.40;;;1.65;;
68214;SDS011;55036;52.138;5.236;2024-01-16T10:50:04;6.27;;;1.67;;
68214;SDS011;55036;52.138;5.236;2024-01-16T10:52:33;11.73;;;2.03;;
68214;SDS011;55036;52.138;5.236;2024-01-16T10:55:00;7.18;;;2.13;;
68214;SDS011;55036;52.138;5.236;2024-01-16T10:57:32;5.80;;;1.30;;
68214;SDS011;55036;52.138;5.236;2024-01-16T11:00:03;6.57;;;1.92;;
68214;SDS011;55036;52.138;5.236;2024-01-16T11:02:42;2.90;;;1.40;;
68214;SDS011;55036;52.138;5.236;2024-01-16T11:05:16;7.30;;;1.50;;
68214;SDS011;55036;52.138;5.236;2024-01-16T11:07:44;4.13;;;1.38;;
68214;SDS011;55036;52.138;5.236;2024-01-16T11:10:11;3.38;;;1.55;;
68214;SDS011;55036;52.138;5.236;2024-01-16T11:12:39;4.05;;;1.17;;
68214;SDS011;55036;52.138;5.236;2024-01-16T11:15:08;5.78;;;1.58;;
68214;SDS011;55036;52.138;5.236;2024-01-16T11:17:38;5.87;;;1.53;;
68214;SDS011;55036;52.138;5.236;2024-01-16T11:20:08;5.00;;;1.27;;
68214;SDS011;55036;52.138;5.236;2024-01-16T11:22:45;4.10;;;1.30;;
68214;SDS011;55036;52.138;5.236;2024-01-16T11:25:14;4.95;;;1.52;;
68214;SDS011;55036;52.138;5.236;2024-01-16T11:27:43;4.95;;;1.88;;
68214;SDS011;55036;52.138;5.236;2024-01-16T11:30:11;3.63;;;1.20;;
68214;SDS011;55036;52.138;5.236;2024-01-16T11:32:39;1.83;;;1.27;;
68214;SDS011;55036;52.138;5.236;2024-01-16T11:35:07;7.53;;;1.75;;
68214;SDS011;55036;52.138;5.236;2024-01-16T11:37:35;4.38;;;1.98;;
68214;SDS011;55036;52.138;5.236;2024-01-16T11:42:43;4.43;;;1.60;;
68214;SDS011;55036;52.138;5.236;2024-01-16T11:48:08;4.43;;;1.58;;
68214;SDS011;55036;52.138;5.236;2024-01-16T11:50:45;4.50;;;1.17;;
68214;SDS011;55036;52.138;5.236;2024-01-16T12:01:19;2.65;;;1.17;;
68214;SDS011;55036;52.138;5.236;2024-01-16T12:04:01;5.53;;;1.58;;
68214;SDS011;55036;52.138;5.236;2024-01-16T12:06:31;5.30;;;1.40;;
68214;SDS011;55036;52.138;5.236;2024-01-16T12:11:43;3.47;;;1.00;;
68214;SDS011;55036;52.138;5.236;2024-01-16T12:14:21;6.32;;;1.52;;
68214;SDS011;55036;52.138;5.236;2024-01-16T12:16:48;3.95;;;1.42;;
68214;SDS011;55036;52.138;5.236;2024-01-16T12:19:15;3.85;;;1.40;;
68214;SDS011;55036;52.138;5.236;2024-01-16T12:21:42;4.60;;;1.58;;
68214;SDS011;55036;52.138;5.236;2024-01-16T12:24:11;6.55;;;1.50;;
68214;SDS011;55036;52.138;5.236;2024-01-16T12:26:43;4.10;;;1.50;;
68214;SDS011;55036;52.138;5.236;2024-01-16T12:29:10;5.35;;;1.20;;
68214;SDS011;55036;52.138;5.236;2024-01-16T12:31:37;5.40;;;1.80;;
68214;SDS011;55036;52.138;5.236;2024-01-16T12:34:08;4.57;;;1.30;;
68214;SDS011;55036;52.138;5.236;2024-01-16T12:36:36;7.22;;;1.73;;
68214;SDS011;55036;52.138;5.236;2024-01-16T12:39:04;4.70;;;1.38;;
68214;SDS011;55036;52.138;5.236;2024-01-16T12:41:35;6.07;;;1.77;;
68214;SDS011;55036;52.138;5.236;2024-01-16T12:44:08;4.50;;;1.45;;
68214;SDS011;55036;52.138;5.236;2024-01-16T12:46:42;2.55;;;1.52;;
68214;SDS011;55036;52.138;5.236;2024-01-16T12:49:22;4.35;;;1.60;;
68214;SDS011;55036;52.138;5.236;2024-01-16T12:51:50;4.35;;;1.80;;
68214;SDS011;55036;52.138;5.236;2024-01-16T12:54:17;4.35;;;1.85;;
68214;SDS011;55036;52.138;5.236;2024-01-16T12:56:45;5.97;;;1.88;;
68214;SDS011;55036;52.138;5.236;2024-01-16T12:59:13;4.90;;;1.73;;
68214;SDS011;55036;52.138;5.236;2024-01-16T13:01:42;2.97;;;1.75;;
68214;SDS011;55036;52.138;5.236;2024-01-16T13:04:10;6.15;;;2.00;;
68214;SDS011;55036;52.138;5.236;2024-01-16T13:06:38;4.35;;;1.95;;
68214;SDS011;55036;52.138;5.236;2024-01-16T13:09:09;5.35;;;2.00;;
68214;SDS011;55036;52.138;5.236;2024-01-16T13:11:59;9.73;;;2.35;;
68214;SDS011;55036;52.138;5.236;2024-01-16T13:14:26;7.72;;;2.95;;
68214;SDS011;55036;52.138;5.236;2024-01-16T13:16:53;7.95;;;1.77;;
68214;SDS011;55036;52.138;5.236;2024-01-16T13:19:22;6.22;;;2.75;;
68214;SDS011;55036;52.138;5.236;2024-01-16T13:21:49;5.32;;;1.75;;
68214;SDS011;55036;52.138;5.236;2024-01-16T13:24:16;5.55;;;2.25;;
68214;SDS011;55036;52.138;5.236;2024-01-16T13:26:47;5.28;;;1.90;;
68214;SDS011;55036;52.138;5.236;2024-01-16T13:29:14;8.82;;;2.53;;
68214;SDS011;55036;52.138;5.236;2024-01-16T13:31:42;5.57;;;1.88;;
68214;SDS011;55036;52.138;5.236;2024-01-16T13:34:10;7.13;;;1.75;;
68214;SDS011;55036;52.138;5.236;2024-01-16T13:36:37;6.13;;;2.10;;
68214;SDS011;55036;52.138;5.236;2024-01-16T13:39:24;3.95;;;1.70;;
68214;SDS011;55036;52.138;5.236;2024-01-16T13:41:51;5.10;;;1.52;;
68214;SDS011;55036;52.138;5.236;2024-01-16T13:44:18;5.13;;;1.23;;
68214;SDS011;55036;52.138;5.236;2024-01-16T13:46:45;10.48;;;1.80;;
68214;SDS011;55036;52.138;5.236;2024-01-16T13:49:15;3.25;;;1.30;;
68214;SDS011;55036;52.138;5.236;2024-01-16T13:51:43;4.72;;;1.77;;
68214;SDS011;55036;52.138;5.236;2024-01-16T13:54:11;5.13;;;1.88;;
68214;SDS011;55036;52.138;5.236;2024-01-16T13:56:37;7.60;;;2.05;;
68214;SDS011;55036;52.138;5.236;2024-01-16T13:59:25;6.93;;;2.30;;
68214;SDS011;55036;52.138;5.236;2024-01-16T14:01:52;4.00;;;1.92;;
68214;SDS011;55036;52.138;5.236;2024-01-16T14:04:18;5.00;;;1.77;;
68214;SDS011;55036;52.138;5.236;2024-01-16T14:06:46;6.05;;;1.50;;
68214;SDS011;55036;52.138;5.236;2024-01-16T14:09:34;5.82;;;1.75;;
68214;SDS011;55036;52.138;5.236;2024-01-16T14:12:02;7.65;;;1.92;;
68214;SDS011;55036;52.138;5.236;2024-01-16T14:14:29;6.07;;;1.40;;
68214;SDS011;55036;52.138;5.236;2024-01-16T14:16:57;5.15;;;2.05;;
68214;SDS011;55036;52.138;5.236;2024-01-16T14:19:27;3.65;;;1.38;;
68214;SDS011;55036;52.138;5.236;2024-01-16T14:21:56;3.90;;;1.45;;
68214;SDS011;55036;52.138;5.236;2024-01-16T14:24:23;3.60;;;1.20;;
68214;SDS011;55036;52.138;5.236;2024-01-16T14:26:50;6.97;;;1.63;;
68214;SDS011;55036;52.138;5.236;2024-01-16T14:29:17;3.35;;;1.17;;
68214;SDS011;55036;52.138;5.236;2024-01-16T14:31:45;6.65;;;1.67;;
68214;SDS011;55036;52.138;5.236;2024-01-16T14:34:15;4.93;;;1.52;;
68214;SDS011;55036;52.138;5.236;2024-01-16T14:36:45;4.65;;;1.00;;
68214;SDS011;55036;52.138;5.236;2024-01-16T14:39:13;4.10;;;1.17;;
68214;SDS011;55036;52.138;5.236;2024-01-16T14:41:43;2.63;;;1.23;;
68214;SDS011;55036;52.138;5.236;2024-01-16T14:44:10;6.20;;;1.00;;
68214;SDS011;55036;52.138;5.236;2024-01-16T14:46:37;6.95;;;1.42;;
68214;SDS011;55036;52.138;5.236;2024-01-16T14:49:04;7.75;;;1.73;;
68214;SDS011;55036;52.138;5.236;2024-01-16T14:51:32;5.00;;;1.23;;
68214;SDS011;55036;52.138;5.236;2024-01-16T14:53:59;5.32;;;0.95;;
68214;SDS011;55036;52.138;5.236;2024-01-16T14:56:28;6.25;;;1.48;;
68214;SDS011;55036;52.138;5.236;2024-01-16T14:58:56;4.47;;;1.58;;
68214;SDS011;55036;52.138;5.236;2024-01-16T15:01:23;4.35;;;1.52;;
68214;SDS011;55036;52.138;5.236;2024-01-16T15:03:50;5.93;;;2.58;;
68214;SDS011;55036;52.138;5.236;2024-01-16T15:06:17;5.75;;;2.45;;
68214;SDS011;55036;52.138;5.236;2024-01-16T15:08:44;6.57;;;2.13;;